sensor_id;sensor_type;location;lat;lon;timestamp;temperature;humidity
55064;DHT22;40963;52.168;21.296;2022-07-03T00:01:02;17.10;99.90
55064;DHT22;40963;52.168;21.296;2022-07-03T00:03:29;17.10;99.90
55064;DHT22;40963;52.168;21.296;2022-07-03T00:05:54;17.00;99.90
55064;DHT22;40963;52.168;21.296;2022-07-03T00:08:20;17.00;99.90
55064;DHT22;40963;52.168;21.296;2022-07-03T00:10:46;17.00;99.90
55064;DHT22;40963;52.168;21.296;2022-07-03T00:13:11;16.90;99.90
55064;DHT22;40963;52.168;21.296;2022-07-03T00:15:37;16.90;99.90
55064;DHT22;40963;52.168;21.296;2022-07-03T00:18:04;16.80;99.90
55064;DHT22;40963;52.168;21.296;2022-07-03T00:20:38;16.80;99.90
55064;DHT22;40963;52.168;21.296;2022-07-03T00:23:09;16.70;99.90
55064;DHT22;40963;52.168;21.296;2022-07-03T00:25:37;16.70;99.90
55064;DHT22;40963;52.168;21.296;2022-07-03T00:28:06;16.60;99.90
55064;DHT22;40963;52.168;21.296;2022-07-03T00:30:35;16.70;99.90
55064;DHT22;40963;52.168;21.296;2022-07-03T00:33:02;16.70;99.90
55064;DHT22;40963;52.168;21.296;2022-07-03T00:35:33;16.70;99.90
55064;DHT22;40963;52.168;21.296;2022-07-03T00:38:02;16.60;99.90
55064;DHT22;40963;52.168;21.296;2022-07-03T00:40:29;16.60;99.90
55064;DHT22;40963;52.168;21.296;2022-07-03T00:42:56;16.60;99.90
55064;DHT22;40963;52.168;21.296;2022-07-03T00:45:26;16.60;99.90
55064;DHT22;40963;52.168;21.296;2022-07-03T00:47:52;16.60;99.90
55064;DHT22;40963;52.168;21.296;2022-07-03T00:50:25;16.60;99.90
55064;DHT22;40963;52.168;21.296;2022-07-03T00:52:52;16.60;99.90
55064;DHT22;40963;52.168;21.296;2022-07-03T00:55:22;16.60;99.90
55064;DHT22;40963;52.168;21.296;2022-07-03T00:57:52;16.60;99.90
55064;DHT22;40963;52.168;21.296;2022-07-03T01:00:20;16.50;99.90
55064;DHT22;40963;52.168;21.296;2022-07-03T01:03:25;16.60;99.90
55064;DHT22;40963;52.168;21.296;2022-07-03T01:05:46;16.60;99.90
55064;DHT22;40963;52.168;21.296;2022-07-03T01:08:43;16.50;99.90
55064;DHT22;40963;52.168;21.296;2022-07-03T01:14:32;16.60;99.90
55064;DHT22;40963;52.168;21.296;2022-07-03T01:17:05;16.50;99.90
55064;DHT22;40963;52.168;21.296;2022-07-03T01:19:48;16.60;99.90
55064;DHT22;40963;52.168;21.296;2022-07-03T01:22:33;16.50;99.90
55064;DHT22;40963;52.168;21.296;2022-07-03T01:25:13;16.50;99.90
55064;DHT22;40963;52.168;21.296;2022-07-03T01:28:12;16.50;99.90
55064;DHT22;40963;52.168;21.296;2022-07-03T01:30:41;16.50;99.90
55064;DHT22;40963;52.168;21.296;2022-07-03T01:33:27;16.50;99.90
55064;DHT22;40963;52.168;21.296;2022-07-03T01:36:08;16.50;99.90
55064;DHT22;40963;52.168;21.296;2022-07-03T01:38:39;16.50;99.90
55064;DHT22;40963;52.168;21.296;2022-07-03T01:41:07;16.50;99.90
55064;DHT22;40963;52.168;21.296;2022-07-03T01:43:39;16.50;99.90
55064;DHT22;40963;52.168;21.296;2022-07-03T01:46:05;16.50;99.90
55064;DHT22;40963;52.168;21.296;2022-07-03T01:48:32;16.50;99.90
55064;DHT22;40963;52.168;21.296;2022-07-03T01:50:59;16.50;99.90
55064;DHT22;40963;52.168;21.296;2022-07-03T01:53:28;16.50;99.90
55064;DHT22;40963;52.168;21.296;2022-07-03T01:55:59;16.50;99.90
55064;DHT22;40963;52.168;21.296;2022-07-03T01:58:25;16.50;99.90
55064;DHT22;40963;52.168;21.296;2022-07-03T02:03:31;16.50;99.90
55064;DHT22;40963;52.168;21.296;2022-07-03T02:06:05;16.50;99.90
55064;DHT22;40963;52.168;21.296;2022-07-03T02:08:36;16.40;99.90
55064;DHT22;40963;52.168;21.296;2022-07-03T02:11:17;16.40;99.90
55064;DHT22;40963;52.168;21.296;2022-07-03T02:14:13;16.40;99.90
55064;DHT22;40963;52.168;21.296;2022-07-03T02:16:51;16.30;99.90
55064;DHT22;40963;52.168;21.296;2022-07-03T02:19:22;16.30;99.90
55064;DHT22;40963;52.168;21.296;2022-07-03T02:21:56;16.30;99.90
55064;DHT22;40963;52.168;21.296;2022-07-03T02:24:23;16.30;99.90
55064;DHT22;40963;52.168;21.296;2022-07-03T02:26:59;16.30;99.90
55064;DHT22;40963;52.168;21.296;2022-07-03T02:29:32;16.30;99.90
55064;DHT22;40963;52.168;21.296;2022-07-03T02:32:02;16.30;99.90
55064;DHT22;40963;52.168;21.296;2022-07-03T02:34:28;16.30;99.90
55064;DHT22;40963;52.168;21.296;2022-07-03T02:36:59;16.30;99.90
55064;DHT22;40963;52.168;21.296;2022-07-03T02:39:51;16.30;99.90
55064;DHT22;40963;52.168;21.296;2022-07-03T02:44:53;16.30;99.90
55064;DHT22;40963;52.168;21.296;2022-07-03T02:50:03;16.20;99.90
55064;DHT22;40963;52.168;21.296;2022-07-03T03:00:59;16.00;99.90
55064;DHT22;40963;52.168;21.296;2022-07-03T03:03:29;16.00;99.90
55064;DHT22;40963;52.168;21.296;2022-07-03T03:06:04;15.90;99.90
55064;DHT22;40963;52.168;21.296;2022-07-03T03:08:43;15.90;99.90
55064;DHT22;40963;52.168;21.296;2022-07-03T03:11:44;15.90;99.90
55064;DHT22;40963;52.168;21.296;2022-07-03T03:14:10;15.90;99.90
55064;DHT22;40963;52.168;21.296;2022-07-03T03:16:45;15.80;99.90
55064;DHT22;40963;52.168;21.296;2022-07-03T03:19:13;15.80;99.90
55064;DHT22;40963;52.168;21.296;2022-07-03T03:21:51;15.80;99.90
55064;DHT22;40963;52.168;21.296;2022-07-03T03:24:18;15.80;99.90
55064;DHT22;40963;52.168;21.296;2022-07-03T03:26:44;15.80;99.90
55064;DHT22;40963;52.168;21.296;2022-07-03T03:29:11;15.70;99.90
55064;DHT22;40963;52.168;21.296;2022-07-03T03:31:36;15.80;99.90
55064;DHT22;40963;52.168;21.296;2022-07-03T03:34:03;15.70;99.90
55064;DHT22;40963;52.168;21.296;2022-07-03T03:36:29;15.80;99.90
55064;DHT22;40963;52.168;21.296;2022-07-03T03:38:55;15.80;99.90
55064;DHT22;40963;52.168;21.296;2022-07-03T03:41:21;15.70;99.90
55064;DHT22;40963;52.168;21.296;2022-07-03T03:43:46;15.70;99.90
55064;DHT22;40963;52.168;21.296;2022-07-03T03:46:13;15.70;99.90
55064;DHT22;40963;52.168;21.296;2022-07-03T03:48:40;15.70;99.90
55064;DHT22;40963;52.168;21.296;2022-07-03T03:51:07;15.70;99.90
55064;DHT22;40963;52.168;21.296;2022-07-03T03:53:33;15.70;99.90
55064;DHT22;40963;52.168;21.296;2022-07-03T03:56:10;15.80;99.90
55064;DHT22;40963;52.168;21.296;2022-07-03T03:58:38;15.70;99.90
55064;DHT22;40963;52.168;21.296;2022-07-03T04:01:06;15.70;99.90
55064;DHT22;40963;52.168;21.296;2022-07-03T04:03:33;15.80;99.90
55064;DHT22;40963;52.168;21.296;2022-07-03T04:05:59;15.80;99.90
55064;DHT22;40963;52.168;21.296;2022-07-03T04:08:26;15.80;99.90
55064;DHT22;40963;52.168;21.296;2022-07-03T04:10:51;15.80;99.90
55064;DHT22;40963;52.168;21.296;2022-07-03T04:13:18;15.90;99.90
55064;DHT22;40963;52.168;21.296;2022-07-03T04:15:47;15.90;99.90
55064;DHT22;40963;52.168;21.296;2022-07-03T04:18:14;16.00;99.90
55064;DHT22;40963;52.168;21.296;2022-07-03T04:20:40;16.00;99.90
55064;DHT22;40963;52.168;21.296;2022-07-03T04:23:05;16.00;99.90
55064;DHT22;40963;52.168;21.296;2022-07-03T04:25:31;16.00;99.90
55064;DHT22;40963;52.168;21.296;2022-07-03T04:27:57;16.10;99.90
55064;DHT22;40963;52.168;21.296;2022-07-03T04:30:23;16.10;99.90
55064;DHT22;40963;52.168;21.296;2022-07-03T04:32:49;16.20;99.90
55064;DHT22;40963;52.168;21.296;2022-07-03T04:35:14;16.30;99.90
55064;DHT22;40963;52.168;21.296;2022-07-03T04:37:41;16.30;99.90
55064;DHT22;40963;52.168;21.296;2022-07-03T04:40:08;16.40;99.90
55064;DHT22;40963;52.168;21.296;2022-07-03T04:42:34;16.50;99.90
55064;DHT22;40963;52.168;21.296;2022-07-03T04:45:01;16.50;99.90
55064;DHT22;40963;52.168;21.296;2022-07-03T04:47:26;16.50;99.90
55064;DHT22;40963;52.168;21.296;2022-07-03T04:49:52;16.60;99.90
55064;DHT22;40963;52.168;21.296;2022-07-03T04:52:18;16.60;99.90
55064;DHT22;40963;52.168;21.296;2022-07-03T04:54:43;16.70;99.90
55064;DHT22;40963;52.168;21.296;2022-07-03T04:57:09;16.70;99.90
55064;DHT22;40963;52.168;21.296;2022-07-03T04:59:35;16.80;99.90
55064;DHT22;40963;52.168;21.296;2022-07-03T05:02:01;16.80;99.90
55064;DHT22;40963;52.168;21.296;2022-07-03T05:04:27;16.90;99.90
55064;DHT22;40963;52.168;21.296;2022-07-03T05:06:52;17.00;99.90
55064;DHT22;40963;52.168;21.296;2022-07-03T05:09:18;17.00;99.90
55064;DHT22;40963;52.168;21.296;2022-07-03T05:11:45;17.00;99.90
55064;DHT22;40963;52.168;21.296;2022-07-03T05:14:10;17.00;99.90
55064;DHT22;40963;52.168;21.296;2022-07-03T05:16:36;17.10;99.90
55064;DHT22;40963;52.168;21.296;2022-07-03T05:19:02;17.10;99.90
55064;DHT22;40963;52.168;21.296;2022-07-03T05:21:28;17.10;99.90
55064;DHT22;40963;52.168;21.296;2022-07-03T05:23:53;17.20;99.90
55064;DHT22;40963;52.168;21.296;2022-07-03T05:26:19;17.20;99.90
55064;DHT22;40963;52.168;21.296;2022-07-03T05:28:45;17.20;99.90
55064;DHT22;40963;52.168;21.296;2022-07-03T05:31:11;17.30;99.90
55064;DHT22;40963;52.168;21.296;2022-07-03T05:33:36;17.40;99.90
55064;DHT22;40963;52.168;21.296;2022-07-03T05:36:03;17.40;99.90
55064;DHT22;40963;52.168;21.296;2022-07-03T05:38:29;17.50;99.90
55064;DHT22;40963;52.168;21.296;2022-07-03T05:41:14;17.70;99.90
55064;DHT22;40963;52.168;21.296;2022-07-03T05:43:40;17.70;99.90
55064;DHT22;40963;52.168;21.296;2022-07-03T05:46:05;17.80;99.90
55064;DHT22;40963;52.168;21.296;2022-07-03T05:48:31;17.80;99.90
55064;DHT22;40963;52.168;21.296;2022-07-03T05:50:57;17.90;99.90
55064;DHT22;40963;52.168;21.296;2022-07-03T05:53:23;17.90;99.80
55064;DHT22;40963;52.168;21.296;2022-07-03T05:55:49;17.90;99.60
55064;DHT22;40963;52.168;21.296;2022-07-03T05:58:15;18.00;99.20
55064;DHT22;40963;52.168;21.296;2022-07-03T06:00:41;18.00;99.10
55064;DHT22;40963;52.168;21.296;2022-07-03T06:03:07;18.10;99.00
55064;DHT22;40963;52.168;21.296;2022-07-03T06:05:32;18.10;98.70
55064;DHT22;40963;52.168;21.296;2022-07-03T06:07:58;18.20;98.20
55064;DHT22;40963;52.168;21.296;2022-07-03T06:10:25;18.20;98.30
55064;DHT22;40963;52.168;21.296;2022-07-03T06:12:50;18.20;97.60
55064;DHT22;40963;52.168;21.296;2022-07-03T06:15:16;18.30;97.20
55064;DHT22;40963;52.168;21.296;2022-07-03T06:17:44;18.30;97.00
55064;DHT22;40963;52.168;21.296;2022-07-03T06:20:10;18.30;96.80
55064;DHT22;40963;52.168;21.296;2022-07-03T06:22:37;18.40;96.30
55064;DHT22;40963;52.168;21.296;2022-07-03T06:25:03;18.40;96.30
55064;DHT22;40963;52.168;21.296;2022-07-03T06:27:29;18.50;96.00
55064;DHT22;40963;52.168;21.296;2022-07-03T06:29:55;18.50;95.70
55064;DHT22;40963;52.168;21.296;2022-07-03T06:32:20;18.60;95.60
55064;DHT22;40963;52.168;21.296;2022-07-03T06:34:47;18.60;95.50
55064;DHT22;40963;52.168;21.296;2022-07-03T06:37:12;18.70;95.50
55064;DHT22;40963;52.168;21.296;2022-07-03T06:39:38;18.80;95.30
55064;DHT22;40963;52.168;21.296;2022-07-03T06:42:04;18.90;95.20
55064;DHT22;40963;52.168;21.296;2022-07-03T06:44:30;18.90;94.90
55064;DHT22;40963;52.168;21.296;2022-07-03T06:46:56;19.10;94.80
55064;DHT22;40963;52.168;21.296;2022-07-03T06:49:21;19.10;93.90
55064;DHT22;40963;52.168;21.296;2022-07-03T06:51:47;19.10;94.00
55064;DHT22;40963;52.168;21.296;2022-07-03T06:54:13;19.10;92.90
55064;DHT22;40963;52.168;21.296;2022-07-03T06:56:38;19.20;92.80
55064;DHT22;40963;52.168;21.296;2022-07-03T06:59:04;19.20;92.30
55064;DHT22;40963;52.168;21.296;2022-07-03T07:01:30;19.20;91.90
55064;DHT22;40963;52.168;21.296;2022-07-03T07:03:55;19.30;91.50
55064;DHT22;40963;52.168;21.296;2022-07-03T07:06:21;19.30;91.50
55064;DHT22;40963;52.168;21.296;2022-07-03T07:08:47;19.30;90.50
55064;DHT22;40963;52.168;21.296;2022-07-03T07:11:13;19.30;89.30
55064;DHT22;40963;52.168;21.296;2022-07-03T07:13:38;19.30;88.10
55064;DHT22;40963;52.168;21.296;2022-07-03T07:16:05;19.30;86.80
55064;DHT22;40963;52.168;21.296;2022-07-03T07:18:30;19.40;86.40
55064;DHT22;40963;52.168;21.296;2022-07-03T07:20:56;19.40;85.60
55064;DHT22;40963;52.168;21.296;2022-07-03T07:23:22;19.50;86.20
55064;DHT22;40963;52.168;21.296;2022-07-03T07:25:47;19.70;86.10
55064;DHT22;40963;52.168;21.296;2022-07-03T07:28:13;19.70;85.40
55064;DHT22;40963;52.168;21.296;2022-07-03T07:30:39;19.80;84.70
55064;DHT22;40963;52.168;21.296;2022-07-03T07:33:06;19.90;83.80
55064;DHT22;40963;52.168;21.296;2022-07-03T07:35:32;19.90;83.10
55064;DHT22;40963;52.168;21.296;2022-07-03T07:37:57;19.90;83.70
55064;DHT22;40963;52.168;21.296;2022-07-03T07:40:23;20.00;84.90
55064;DHT22;40963;52.168;21.296;2022-07-03T07:42:48;20.10;81.80
55064;DHT22;40963;52.168;21.296;2022-07-03T07:45:14;20.00;82.50
55064;DHT22;40963;52.168;21.296;2022-07-03T07:47:40;20.00;82.10
55064;DHT22;40963;52.168;21.296;2022-07-03T07:50:06;20.00;81.40
55064;DHT22;40963;52.168;21.296;2022-07-03T07:52:32;20.00;81.10
55064;DHT22;40963;52.168;21.296;2022-07-03T07:54:57;20.10;81.10
55064;DHT22;40963;52.168;21.296;2022-07-03T07:57:23;20.20;81.80
55064;DHT22;40963;52.168;21.296;2022-07-03T07:59:48;20.40;82.30
55064;DHT22;40963;52.168;21.296;2022-07-03T08:02:14;20.50;81.00
55064;DHT22;40963;52.168;21.296;2022-07-03T08:04:58;20.60;81.00
55064;DHT22;40963;52.168;21.296;2022-07-03T08:07:42;20.60;80.40
55064;DHT22;40963;52.168;21.296;2022-07-03T08:10:08;20.70;80.20
55064;DHT22;40963;52.168;21.296;2022-07-03T08:12:34;20.80;80.30
55064;DHT22;40963;52.168;21.296;2022-07-03T08:14:59;20.90;80.00
55064;DHT22;40963;52.168;21.296;2022-07-03T08:17:25;20.90;78.70
55064;DHT22;40963;52.168;21.296;2022-07-03T08:19:51;21.00;77.50
55064;DHT22;40963;52.168;21.296;2022-07-03T08:22:16;21.00;77.10
55064;DHT22;40963;52.168;21.296;2022-07-03T08:24:43;21.00;76.50
55064;DHT22;40963;52.168;21.296;2022-07-03T08:27:08;21.10;77.50
55064;DHT22;40963;52.168;21.296;2022-07-03T08:29:34;21.10;78.10
55064;DHT22;40963;52.168;21.296;2022-07-03T08:31:59;21.10;78.00
55064;DHT22;40963;52.168;21.296;2022-07-03T08:34:25;21.20;78.40
55064;DHT22;40963;52.168;21.296;2022-07-03T08:36:51;21.30;79.40
55064;DHT22;40963;52.168;21.296;2022-07-03T08:39:17;21.30;78.10
55064;DHT22;40963;52.168;21.296;2022-07-03T08:41:42;21.30;78.20
55064;DHT22;40963;52.168;21.296;2022-07-03T08:44:09;21.30;79.20
55064;DHT22;40963;52.168;21.296;2022-07-03T08:46:36;21.30;79.40
55064;DHT22;40963;52.168;21.296;2022-07-03T08:49:06;21.40;80.10
55064;DHT22;40963;52.168;21.296;2022-07-03T08:51:32;21.50;80.30
55064;DHT22;40963;52.168;21.296;2022-07-03T08:53:59;21.60;80.30
55064;DHT22;40963;52.168;21.296;2022-07-03T08:56:27;21.50;79.20
55064;DHT22;40963;52.168;21.296;2022-07-03T08:58:52;21.60;79.60
55064;DHT22;40963;52.168;21.296;2022-07-03T09:01:18;21.70;80.10
55064;DHT22;40963;52.168;21.296;2022-07-03T09:03:45;21.80;80.10
55064;DHT22;40963;52.168;21.296;2022-07-03T09:06:12;21.90;78.90
55064;DHT22;40963;52.168;21.296;2022-07-03T09:08:38;21.80;77.30
55064;DHT22;40963;52.168;21.296;2022-07-03T09:11:05;21.80;77.60
55064;DHT22;40963;52.168;21.296;2022-07-03T09:13:30;21.90;78.20
55064;DHT22;40963;52.168;21.296;2022-07-03T09:15:56;21.90;77.70
55064;DHT22;40963;52.168;21.296;2022-07-03T09:18:42;21.90;77.10
55064;DHT22;40963;52.168;21.296;2022-07-03T09:21:08;22.00;77.90
55064;DHT22;40963;52.168;21.296;2022-07-03T09:23:39;22.20;78.30
55064;DHT22;40963;52.168;21.296;2022-07-03T09:26:05;22.40;77.10
55064;DHT22;40963;52.168;21.296;2022-07-03T09:28:48;22.40;76.50
55064;DHT22;40963;52.168;21.296;2022-07-03T09:31:18;22.30;75.80
55064;DHT22;40963;52.168;21.296;2022-07-03T09:33:57;22.30;76.30
55064;DHT22;40963;52.168;21.296;2022-07-03T09:36:40;22.30;77.50
55064;DHT22;40963;52.168;21.296;2022-07-03T09:39:26;22.30;78.10
55064;DHT22;40963;52.168;21.296;2022-07-03T09:42:06;22.40;78.20
55064;DHT22;40963;52.168;21.296;2022-07-03T09:49:49;22.80;75.90
55064;DHT22;40963;52.168;21.296;2022-07-03T09:52:34;22.80;75.40
55064;DHT22;40963;52.168;21.296;2022-07-03T09:55:20;22.80;75.20
55064;DHT22;40963;52.168;21.296;2022-07-03T09:57:58;22.80;75.80
55064;DHT22;40963;52.168;21.296;2022-07-03T10:00:27;22.80;76.80
55064;DHT22;40963;52.168;21.296;2022-07-03T10:05:20;22.70;77.60
55064;DHT22;40963;52.168;21.296;2022-07-03T10:07:51;22.70;77.50
55064;DHT22;40963;52.168;21.296;2022-07-03T10:10:19;22.70;77.90
55064;DHT22;40963;52.168;21.296;2022-07-03T10:12:48;22.70;77.50
55064;DHT22;40963;52.168;21.296;2022-07-03T10:15:15;22.70;76.10
55064;DHT22;40963;52.168;21.296;2022-07-03T10:17:42;22.70;76.60
55064;DHT22;40963;52.168;21.296;2022-07-03T10:20:11;22.80;76.80
55064;DHT22;40963;52.168;21.296;2022-07-03T10:22:39;22.80;76.40
55064;DHT22;40963;52.168;21.296;2022-07-03T10:25:07;22.90;75.80
55064;DHT22;40963;52.168;21.296;2022-07-03T10:27:36;23.00;76.00
55064;DHT22;40963;52.168;21.296;2022-07-03T10:30:02;23.10;76.50
55064;DHT22;40963;52.168;21.296;2022-07-03T10:32:28;23.20;76.10
55064;DHT22;40963;52.168;21.296;2022-07-03T10:34:54;23.30;75.40
55064;DHT22;40963;52.168;21.296;2022-07-03T10:37:21;23.30;75.90
55064;DHT22;40963;52.168;21.296;2022-07-03T10:40:02;23.40;74.60
55064;DHT22;40963;52.168;21.296;2022-07-03T10:42:55;23.60;73.80
55064;DHT22;40963;52.168;21.296;2022-07-03T10:46:16;23.60;72.00
55064;DHT22;40963;52.168;21.296;2022-07-03T10:49:08;23.50;71.30
55064;DHT22;40963;52.168;21.296;2022-07-03T10:51:58;23.50;70.40
55064;DHT22;40963;52.168;21.296;2022-07-03T10:54:30;23.50;71.10
55064;DHT22;40963;52.168;21.296;2022-07-03T11:02:17;23.40;69.70
55064;DHT22;40963;52.168;21.296;2022-07-03T11:07:28;23.60;72.00
55064;DHT22;40963;52.168;21.296;2022-07-03T11:12:58;23.70;71.40
55064;DHT22;40963;52.168;21.296;2022-07-03T11:25:51;23.40;72.20
55064;DHT22;40963;52.168;21.296;2022-07-03T11:36:29;23.50;71.90
55064;DHT22;40963;52.168;21.296;2022-07-03T11:41:21;23.80;72.50
55064;DHT22;40963;52.168;21.296;2022-07-03T11:43:53;24.00;71.90
55064;DHT22;40963;52.168;21.296;2022-07-03T11:46:24;24.00;71.30
55064;DHT22;40963;52.168;21.296;2022-07-03T11:49:04;24.00;70.50
55064;DHT22;40963;52.168;21.296;2022-07-03T11:51:29;23.90;70.00
55064;DHT22;40963;52.168;21.296;2022-07-03T11:53:55;23.80;70.30
55064;DHT22;40963;52.168;21.296;2022-07-03T11:56:20;23.80;70.60
55064;DHT22;40963;52.168;21.296;2022-07-03T11:58:47;23.70;70.70
55064;DHT22;40963;52.168;21.296;2022-07-03T12:03:49;23.90;71.80
55064;DHT22;40963;52.168;21.296;2022-07-03T12:06:15;24.00;71.50
55064;DHT22;40963;52.168;21.296;2022-07-03T12:08:41;24.00;70.80
55064;DHT22;40963;52.168;21.296;2022-07-03T12:11:13;24.10;71.10
55064;DHT22;40963;52.168;21.296;2022-07-03T12:13:40;24.20;70.40
55064;DHT22;40963;52.168;21.296;2022-07-03T12:16:09;24.30;69.60
55064;DHT22;40963;52.168;21.296;2022-07-03T12:18:52;24.30;69.20
55064;DHT22;40963;52.168;21.296;2022-07-03T12:21:23;24.40;69.90
55064;DHT22;40963;52.168;21.296;2022-07-03T12:23:55;24.50;70.00
55064;DHT22;40963;52.168;21.296;2022-07-03T12:26:32;24.60;69.80
55064;DHT22;40963;52.168;21.296;2022-07-03T12:28:59;24.60;69.60
55064;DHT22;40963;52.168;21.296;2022-07-03T12:31:26;24.50;69.20
55064;DHT22;40963;52.168;21.296;2022-07-03T12:33:52;24.30;69.20
55064;DHT22;40963;52.168;21.296;2022-07-03T12:36:18;24.20;69.90
55064;DHT22;40963;52.168;21.296;2022-07-03T12:38:48;24.00;69.70
55064;DHT22;40963;52.168;21.296;2022-07-03T12:41:15;23.90;69.90
55064;DHT22;40963;52.168;21.296;2022-07-03T12:43:42;23.90;70.20
55064;DHT22;40963;52.168;21.296;2022-07-03T12:46:33;23.80;71.00
55064;DHT22;40963;52.168;21.296;2022-07-03T12:49:08;23.80;72.50
55064;DHT22;40963;52.168;21.296;2022-07-03T12:51:45;23.80;73.90
55064;DHT22;40963;52.168;21.296;2022-07-03T12:54:14;23.90;74.60
55064;DHT22;40963;52.168;21.296;2022-07-03T12:56:41;23.90;74.60
55064;DHT22;40963;52.168;21.296;2022-07-03T12:59:07;23.90;75.00
55064;DHT22;40963;52.168;21.296;2022-07-03T13:01:59;23.90;75.60
55064;DHT22;40963;52.168;21.296;2022-07-03T13:04:36;23.90;75.70
55064;DHT22;40963;52.168;21.296;2022-07-03T13:07:07;23.90;75.80
55064;DHT22;40963;52.168;21.296;2022-07-03T13:09:36;23.90;76.10
55064;DHT22;40963;52.168;21.296;2022-07-03T13:12:03;23.90;75.80
55064;DHT22;40963;52.168;21.296;2022-07-03T13:14:29;23.90;76.20
55064;DHT22;40963;52.168;21.296;2022-07-03T13:16:56;24.00;77.30
55064;DHT22;40963;52.168;21.296;2022-07-03T13:19:26;24.00;78.70
55064;DHT22;40963;52.168;21.296;2022-07-03T13:21:54;24.10;79.50
55064;DHT22;40963;52.168;21.296;2022-07-03T13:24:20;24.10;80.10
55064;DHT22;40963;52.168;21.296;2022-07-03T13:26:48;24.10;81.20
55064;DHT22;40963;52.168;21.296;2022-07-03T13:29:14;24.00;82.30
55064;DHT22;40963;52.168;21.296;2022-07-03T13:31:39;24.00;83.30
55064;DHT22;40963;52.168;21.296;2022-07-03T13:34:05;23.90;84.10
55064;DHT22;40963;52.168;21.296;2022-07-03T13:36:32;23.80;84.30
55064;DHT22;40963;52.168;21.296;2022-07-03T13:38:58;23.70;85.30
55064;DHT22;40963;52.168;21.296;2022-07-03T13:41:25;23.60;85.90
55064;DHT22;40963;52.168;21.296;2022-07-03T13:43:51;23.60;86.80
55064;DHT22;40963;52.168;21.296;2022-07-03T13:46:18;23.70;88.00
55064;DHT22;40963;52.168;21.296;2022-07-03T13:48:44;23.80;88.90
55064;DHT22;40963;52.168;21.296;2022-07-03T13:51:10;23.80;88.70
55064;DHT22;40963;52.168;21.296;2022-07-03T13:53:36;23.90;88.00
55064;DHT22;40963;52.168;21.296;2022-07-03T13:56:02;24.00;88.40
55064;DHT22;40963;52.168;21.296;2022-07-03T13:58:28;24.10;88.10
55064;DHT22;40963;52.168;21.296;2022-07-03T14:00:54;24.10;87.30
55064;DHT22;40963;52.168;21.296;2022-07-03T14:03:20;24.30;86.30
55064;DHT22;40963;52.168;21.296;2022-07-03T14:05:47;24.40;85.20
55064;DHT22;40963;52.168;21.296;2022-07-03T14:08:19;24.50;84.00
55064;DHT22;40963;52.168;21.296;2022-07-03T14:10:45;24.60;82.70
55064;DHT22;40963;52.168;21.296;2022-07-03T14:13:11;24.70;81.50
55064;DHT22;40963;52.168;21.296;2022-07-03T14:15:37;24.80;80.30
55064;DHT22;40963;52.168;21.296;2022-07-03T14:18:02;24.80;79.50
55064;DHT22;40963;52.168;21.296;2022-07-03T14:20:28;24.90;79.10
55064;DHT22;40963;52.168;21.296;2022-07-03T14:22:54;25.00;78.50
55064;DHT22;40963;52.168;21.296;2022-07-03T14:25:20;25.00;78.60
55064;DHT22;40963;52.168;21.296;2022-07-03T14:27:46;25.00;78.10
55064;DHT22;40963;52.168;21.296;2022-07-03T14:30:30;25.00;78.10
55064;DHT22;40963;52.168;21.296;2022-07-03T14:33:14;24.90;78.70
55064;DHT22;40963;52.168;21.296;2022-07-03T14:35:39;24.80;79.40
55064;DHT22;40963;52.168;21.296;2022-07-03T14:38:05;24.70;79.30
55064;DHT22;40963;52.168;21.296;2022-07-03T14:40:31;24.70;79.40
55064;DHT22;40963;52.168;21.296;2022-07-03T14:42:56;24.60;79.80
55064;DHT22;40963;52.168;21.296;2022-07-03T14:45:23;24.60;80.50
55064;DHT22;40963;52.168;21.296;2022-07-03T14:47:49;24.60;81.40
55064;DHT22;40963;52.168;21.296;2022-07-03T14:50:15;24.60;81.50
55064;DHT22;40963;52.168;21.296;2022-07-03T14:52:41;24.70;81.80
55064;DHT22;40963;52.168;21.296;2022-07-03T14:55:07;24.70;81.60
55064;DHT22;40963;52.168;21.296;2022-07-03T14:57:45;24.70;82.80
55064;DHT22;40963;52.168;21.296;2022-07-03T15:00:13;24.70;82.70
55064;DHT22;40963;52.168;21.296;2022-07-03T15:05:10;24.80;82.40
55064;DHT22;40963;52.168;21.296;2022-07-03T15:07:41;24.80;82.50
55064;DHT22;40963;52.168;21.296;2022-07-03T15:10:14;24.80;82.60
55064;DHT22;40963;52.168;21.296;2022-07-03T15:12:53;24.90;83.80
55064;DHT22;40963;52.168;21.296;2022-07-03T15:15:21;24.90;83.20
55064;DHT22;40963;52.168;21.296;2022-07-03T15:17:50;25.00;82.90
55064;DHT22;40963;52.168;21.296;2022-07-03T15:20:17;25.00;82.00
55064;DHT22;40963;52.168;21.296;2022-07-03T15:22:44;24.90;81.80
55064;DHT22;40963;52.168;21.296;2022-07-03T15:25:12;24.80;82.30
55064;DHT22;40963;52.168;21.296;2022-07-03T15:27:39;24.70;82.70
55064;DHT22;40963;52.168;21.296;2022-07-03T15:30:06;24.70;83.10
55064;DHT22;40963;52.168;21.296;2022-07-03T15:32:34;24.60;83.30
55064;DHT22;40963;52.168;21.296;2022-07-03T15:35:00;24.50;83.80
55064;DHT22;40963;52.168;21.296;2022-07-03T15:43:04;24.30;84.40
55064;DHT22;40963;52.168;21.296;2022-07-03T15:51:52;24.30;84.90
55064;DHT22;40963;52.168;21.296;2022-07-03T16:00:24;24.30;84.80
55064;DHT22;40963;52.168;21.296;2022-07-03T16:03:25;24.20;84.90
55064;DHT22;40963;52.168;21.296;2022-07-03T16:05:54;24.30;84.60
55064;DHT22;40963;52.168;21.296;2022-07-03T16:08:21;24.20;84.90
55064;DHT22;40963;52.168;21.296;2022-07-03T16:10:50;24.20;85.20
55064;DHT22;40963;52.168;21.296;2022-07-03T16:13:25;24.20;85.20
55064;DHT22;40963;52.168;21.296;2022-07-03T16:15:52;24.20;84.90
55064;DHT22;40963;52.168;21.296;2022-07-03T16:18:18;24.10;84.80
55064;DHT22;40963;52.168;21.296;2022-07-03T16:20:45;24.10;84.50
55064;DHT22;40963;52.168;21.296;2022-07-03T16:23:12;24.00;84.80
55064;DHT22;40963;52.168;21.296;2022-07-03T16:25:38;24.00;84.90
55064;DHT22;40963;52.168;21.296;2022-07-03T16:28:07;24.00;85.50
55064;DHT22;40963;52.168;21.296;2022-07-03T16:30:36;24.00;85.90
55064;DHT22;40963;52.168;21.296;2022-07-03T16:33:07;24.00;85.80
55064;DHT22;40963;52.168;21.296;2022-07-03T16:35:45;24.00;85.90
55064;DHT22;40963;52.168;21.296;2022-07-03T16:38:21;24.00;86.00
55064;DHT22;40963;52.168;21.296;2022-07-03T16:40:49;24.00;86.10
55064;DHT22;40963;52.168;21.296;2022-07-03T16:43:17;24.00;86.30
55064;DHT22;40963;52.168;21.296;2022-07-03T16:45:45;24.00;86.70
55064;DHT22;40963;52.168;21.296;2022-07-03T16:48:21;23.90;87.10
55064;DHT22;40963;52.168;21.296;2022-07-03T16:50:51;23.90;87.40